createdAt,value
2022-11-19T00:01:53.832Z,8.35
2022-11-19T00:04:30.249Z,6.63
2022-11-19T00:07:05.362Z,7.03
2022-11-19T00:09:40.293Z,12.32
2022-11-19T00:12:33.570Z,5.47
2022-11-19T00:15:08.708Z,8.00
2022-11-19T00:17:44.925Z,8.07
2022-11-19T00:20:20.353Z,11.00
2022-11-19T00:22:58.803Z,9.13
2022-11-19T00:25:35.246Z,11.50
2022-11-19T00:28:13.711Z,4.88
2022-11-19T00:30:49.582Z,8.27
2022-11-19T00:33:24.427Z,9.25
2022-11-19T00:36:05.018Z,6.18
2022-11-19T00:38:40.100Z,6.82
2022-11-19T00:41:15.253Z,6.85
2022-11-19T00:43:52.322Z,7.13
2022-11-19T00:46:27.744Z,7.40
2022-11-19T00:49:03.649Z,7.30
2022-11-19T00:51:38.537Z,7.80
2022-11-19T00:54:14.553Z,7.80
2022-11-19T00:56:49.942Z,7.97
2022-11-19T00:59:28.758Z,8.30
2022-11-19T01:02:05.286Z,6.55
2022-11-19T01:04:39.754Z,6.03
2022-11-19T01:07:14.195Z,6.43
2022-11-19T01:09:51.669Z,6.70
2022-11-19T01:12:28.194Z,7.90
2022-11-19T01:15:05.274Z,5.80
2022-11-19T01:17:40.929Z,8.43
2022-11-19T01:20:17.569Z,8.77
2022-11-19T01:22:53.419Z,7.15
2022-11-19T01:25:29.355Z,6.63
2022-11-19T01:28:05.616Z,8.63
2022-11-19T01:30:47.814Z,5.50
2022-11-19T01:33:22.343Z,11.73
2022-11-19T01:36:04.456Z,9.82
2022-11-19T01:38:40.855Z,9.15
2022-11-19T01:41:22.702Z,9.55
2022-11-19T01:44:00.885Z,9.85
2022-11-19T01:46:39.793Z,9.70
2022-11-19T01:49:19.131Z,8.00
2022-11-19T01:51:57.567Z,10.40
2022-11-19T01:54:34.973Z,8.95
2022-11-19T01:57:13.814Z,10.07
2022-11-19T01:59:49.942Z,9.50
2022-11-19T02:02:29.076Z,6.90
2022-11-19T02:05:05.618Z,9.07
2022-11-19T02:07:54.896Z,6.63
2022-11-19T02:10:41.226Z,7.85
2022-11-19T02:13:32.340Z,6.85
2022-11-19T02:16:10.170Z,11.18
2022-11-19T02:18:51.613Z,11.02
2022-11-19T02:21:30.850Z,8.13
2022-11-19T02:24:32.112Z,8.50
2022-11-19T02:27:28.634Z,6.53
2022-11-19T02:30:18.716Z,6.93
2022-11-19T02:32:57.914Z,8.43
2022-11-19T02:35:54.872Z,5.97
2022-11-19T02:38:34.726Z,8.60
2022-11-19T02:41:26.920Z,6.75
2022-11-19T02:44:20.631Z,11.00
2022-11-19T02:47:04.509Z,8.50
2022-11-19T02:49:41.271Z,7.07
2022-11-19T02:52:18.492Z,5.68
2022-11-19T02:54:58.250Z,10.88
2022-11-19T02:57:37.772Z,9.27
2022-11-19T03:00:35.710Z,8.45
2022-11-19T03:03:30.796Z,7.32
2022-11-19T03:06:10.613Z,9.43
2022-11-19T03:08:45.915Z,7.25
2022-11-19T03:11:26.774Z,9.10
2022-11-19T03:14:19.954Z,9.40
2022-11-19T03:16:57.703Z,8.38
2022-11-19T03:19:42.267Z,8.13
2022-11-19T03:22:20.423Z,6.03
2022-11-19T03:24:58.058Z,8.60
2022-11-19T03:27:35.212Z,10.35
2022-11-19T03:30:12.095Z,9.35
2022-11-19T03:32:50.744Z,8.52
2022-11-19T03:35:30.801Z,9.02
2022-11-19T03:38:08.377Z,10.48
2022-11-19T03:40:44.764Z,9.30
2022-11-19T03:43:22.515Z,7.78
2022-11-19T03:45:58.476Z,8.60
2022-11-19T03:48:34.110Z,9.20
2022-11-19T03:51:14.989Z,12.25
2022-11-19T03:53:50.990Z,9.13
2022-11-19T03:56:27.691Z,11.32
2022-11-19T03:59:04.921Z,8.30
2022-11-19T04:01:39.840Z,9.68
2022-11-19T04:04:30.881Z,10.48
2022-11-19T04:07:07.956Z,10.50
2022-11-19T04:09:43.602Z,9.75
2022-11-19T04:12:21.117Z,8.75
2022-11-19T04:14:55.881Z,6.53
2022-11-19T04:17:31.770Z,8.50
2022-11-19T04:20:07.891Z,9.73
2022-11-19T04:22:46.640Z,10.32
2022-11-19T04:25:24.574Z,10.45
2022-11-19T04:28:01.097Z,10.32
2022-11-19T04:30:35.674Z,9.77
2022-11-19T04:33:10.641Z,10.88
2022-11-19T04:35:45.943Z,11.60
2022-11-19T04:38:23.859Z,8.75
2022-11-19T04:41:01.172Z,8.27
2022-11-19T04:43:38.838Z,9.10
2022-11-19T04:46:13.403Z,8.57
2022-11-19T04:48:53.993Z,9.75
2022-11-19T04:51:29.581Z,10.10
2022-11-19T04:54:06.590Z,10.35
2022-11-19T04:56:50.205Z,11.52
2022-11-19T04:59:24.884Z,12.52
2022-11-19T05:02:00.317Z,9.98
2022-11-19T05:04:39.535Z,7.40
2022-11-19T05:07:17.265Z,12.98
2022-11-19T05:09:54.751Z,15.18
2022-11-19T05:12:29.967Z,12.57
2022-11-19T05:15:09.371Z,11.18
2022-11-19T05:17:50.551Z,12.43
2022-11-19T05:20:28.226Z,11.52
2022-11-19T05:23:08.416Z,11.35
2022-11-19T05:25:57.812Z,10.57
2022-11-19T05:28:59.773Z,11.60
2022-11-19T05:31:39.888Z,15.88
2022-11-19T05:34:16.210Z,8.18
2022-11-19T05:36:53.732Z,11.02
2022-11-19T05:39:55.913Z,12.80
2022-11-19T05:42:33.416Z,13.98
2022-11-19T05:45:10.925Z,12.52
2022-11-19T05:47:48.709Z,14.13
2022-11-19T05:50:40.292Z,13.30
2022-11-19T05:53:19.803Z,16.48
2022-11-19T05:55:56.841Z,12.73
2022-11-19T05:58:33.461Z,10.45
2022-11-19T06:01:10.604Z,9.40
2022-11-19T06:03:49.812Z,17.35
2022-11-19T06:06:25.917Z,12.25
2022-11-19T06:09:00.545Z,14.27
2022-11-19T06:11:55.144Z,11.77
2022-11-19T06:14:38.214Z,16.70
2022-11-19T06:17:13.736Z,14.48
2022-11-19T06:19:50.022Z,15.93
2022-11-19T06:22:25.614Z,15.55
2022-11-19T06:25:01.138Z,17.98
2022-11-19T06:27:38.244Z,12.68
2022-11-19T06:30:18.151Z,20.52
2022-11-19T06:32:54.303Z,10.80
2022-11-19T06:35:31.158Z,16.13
2022-11-19T06:38:07.324Z,15.55
2022-11-19T06:40:43.347Z,15.00
2022-11-19T06:43:19.799Z,17.60
2022-11-19T06:45:59.090Z,13.85
2022-11-19T06:48:35.007Z,12.63
2022-11-19T06:51:10.006Z,16.40
2022-11-19T06:53:44.902Z,18.83
2022-11-19T06:56:20.547Z,16.35
2022-11-19T06:58:55.542Z,19.88
2022-11-19T07:01:35.781Z,17.80
2022-11-19T07:04:11.892Z,17.42
2022-11-19T07:06:47.103Z,18.58
2022-11-19T07:09:22.981Z,17.95
2022-11-19T07:11:58.680Z,16.05
2022-11-19T07:14:34.293Z,18.70
2022-11-19T07:17:11.502Z,23.00
2022-11-19T07:19:47.024Z,21.15
2022-11-19T07:22:22.534Z,16.88
2022-11-19T07:24:58.445Z,20.85
2022-11-19T07:27:33.593Z,21.35
2022-11-19T07:30:09.189Z,23.90
2022-11-19T07:32:46.270Z,18.80
2022-11-19T07:35:21.592Z,17.35
2022-11-19T07:37:56.816Z,16.65
2022-11-19T07:40:32.453Z,25.13
2022-11-19T07:43:11.492Z,19.67
2022-11-19T07:45:50.520Z,16.63
2022-11-19T07:48:27.896Z,19.85
2022-11-19T07:51:02.989Z,19.67
2022-11-19T07:53:38.569Z,20.60
2022-11-19T07:56:14.036Z,17.27
2022-11-19T07:58:48.712Z,21.20
2022-11-19T08:01:24.800Z,24.60
2022-11-19T08:04:01.706Z,23.63
2022-11-19T08:06:38.283Z,19.98
2022-11-19T08:09:16.730Z,18.80
2022-11-19T08:11:55.213Z,21.58
2022-11-19T08:14:34.413Z,27.50
2022-11-19T08:17:31.847Z,25.95
2022-11-19T08:20:10.219Z,18.02
2022-11-19T08:22:45.997Z,27.50
2022-11-19T08:25:21.478Z,20.40
2022-11-19T08:27:59.645Z,22.35
2022-11-19T08:30:35.214Z,21.73
2022-11-19T08:33:11.771Z,21.63
2022-11-19T08:35:48.915Z,19.45
2022-11-19T08:38:26.071Z,26.50
2022-11-19T08:41:12.998Z,27.13
2022-11-19T08:43:49.050Z,21.90
2022-11-19T08:46:23.979Z,25.63
2022-11-19T08:48:59.359Z,21.40
2022-11-19T08:51:36.668Z,28.02
2022-11-19T08:54:15.198Z,28.90
2022-11-19T08:56:51.725Z,24.73
2022-11-19T08:59:29.391Z,19.88
2022-11-19T09:02:04.933Z,26.08
2022-11-19T09:04:40.239Z,27.75
2022-11-19T09:07:19.960Z,23.23
2022-11-19T09:09:55.154Z,23.38
2022-11-19T09:12:30.154Z,20.35
2022-11-19T09:15:05.074Z,23.33
2022-11-19T09:17:46.392Z,20.83
2022-11-19T09:20:22.396Z,28.00
2022-11-19T09:22:59.728Z,21.75
2022-11-19T09:25:35.037Z,29.23
2022-11-19T09:28:10.548Z,23.58
2022-11-19T09:30:47.089Z,26.27
2022-11-19T09:33:22.805Z,21.42
2022-11-19T09:36:01.093Z,24.48
2022-11-19T09:38:38.822Z,22.02
2022-11-19T09:41:33.985Z,25.38
2022-11-19T09:44:12.340Z,25.38
2022-11-19T09:46:51.781Z,24.02
2022-11-19T09:49:29.948Z,28.70
2022-11-19T09:52:07.074Z,26.13
2022-11-19T09:54:46.865Z,29.92
2022-11-19T09:57:24.465Z,30.25
2022-11-19T10:00:01.774Z,30.05
2022-11-19T10:02:46.836Z,25.65
2022-11-19T10:05:23.060Z,34.28
2022-11-19T10:08:03.132Z,29.60
2022-11-19T10:10:45.588Z,29.52
2022-11-19T10:13:28.860Z,22.08
2022-11-19T10:16:20.514Z,30.58
2022-11-19T10:18:58.673Z,30.48
2022-11-19T10:21:36.923Z,30.27
2022-11-19T10:24:19.590Z,30.15
2022-11-19T10:27:07.303Z,29.23
2022-11-19T10:29:44.491Z,27.02
2022-11-19T10:32:29.499Z,33.15
2022-11-19T10:35:09.318Z,24.27
2022-11-19T10:37:46.737Z,25.15
2022-11-19T10:40:25.069Z,25.85
2022-11-19T10:43:13.190Z,30.13
2022-11-19T10:45:50.615Z,30.80
2022-11-19T10:48:27.596Z,21.65
2022-11-19T10:51:04.995Z,28.85
2022-11-19T10:53:44.271Z,26.58
2022-11-19T10:56:22.922Z,22.55
2022-11-19T10:59:03.270Z,26.05
2022-11-19T11:02:01.517Z,31.10
2022-11-19T11:05:19.493Z,30.10
2022-11-19T11:08:28.513Z,22.90
2022-11-19T11:11:53.497Z,32.38
2022-11-19T11:15:02.521Z,26.92
2022-11-19T11:18:18.604Z,24.50
2022-11-19T11:21:29.563Z,29.65
2022-11-19T11:24:18.403Z,27.77
2022-11-19T11:26:53.951Z,30.35
2022-11-19T11:29:31.722Z,24.08
2022-11-19T11:32:18.585Z,29.13
2022-11-19T11:34:58.267Z,28.90
2022-11-19T11:37:37.928Z,36.30
2022-11-19T11:40:23.829Z,22.17
2022-11-19T11:42:58.411Z,26.38
2022-11-19T11:45:36.292Z,30.92
2022-11-19T11:48:14.386Z,25.73
2022-11-19T11:50:51.650Z,39.55
2022-11-19T11:53:34.814Z,22.45
2022-11-19T11:56:16.985Z,32.88
2022-11-19T11:58:53.815Z,31.17
2022-11-19T12:01:32.674Z,31.35
2022-11-19T12:04:27.653Z,34.42
2022-11-19T12:07:17.392Z,29.90
2022-11-19T12:10:05.221Z,29.55
2022-11-19T12:12:45.370Z,28.15
2022-11-19T12:15:23.948Z,21.83
2022-11-19T12:18:04.966Z,26.38
2022-11-19T12:20:48.535Z,29.27
2022-11-19T12:23:38.214Z,21.05
2022-11-19T12:26:32.977Z,22.52
2022-11-19T12:29:15.540Z,22.08
2022-11-19T12:32:03.725Z,18.38
2022-11-19T12:35:02.593Z,18.40
2022-11-19T12:37:50.151Z,17.50
2022-11-19T12:40:40.358Z,15.88
2022-11-19T12:43:25.179Z,19.35
2022-11-19T12:46:05.366Z,13.60
2022-11-19T12:48:52.775Z,15.52
2022-11-19T12:51:36.717Z,12.90
2022-11-19T12:54:36.630Z,16.30
2022-11-19T12:57:30.568Z,15.65
2022-11-19T13:00:21.829Z,14.43
2022-11-19T13:03:08.981Z,13.13
2022-11-19T13:05:52.824Z,17.83
2022-11-19T13:08:37.733Z,15.02
2022-11-19T13:11:18.473Z,12.25
2022-11-19T13:13:56.982Z,12.60
2022-11-19T13:16:35.799Z,20.20
2022-11-19T13:19:28.382Z,15.57
2022-11-19T13:22:08.832Z,21.58
2022-11-19T13:24:47.451Z,30.35
2022-11-19T13:27:29.170Z,28.35
2022-11-19T13:30:09.423Z,29.58
2022-11-19T13:32:48.617Z,33.72
2022-11-19T13:35:28.304Z,25.58
2022-11-19T13:38:13.463Z,30.00
2022-11-19T13:40:54.487Z,30.33
2022-11-19T13:43:48.095Z,28.52
2022-11-19T13:46:28.527Z,22.40
2022-11-19T13:49:07.930Z,28.85
2022-11-19T13:51:45.539Z,25.65
2022-11-19T13:54:29.799Z,22.90
2022-11-19T13:57:06.040Z,27.75
2022-11-19T13:59:48.625Z,22.80
2022-11-19T14:02:51.664Z,24.00
2022-11-19T14:06:04.606Z,18.70
2022-11-19T14:08:55.557Z,21.95
2022-11-19T14:11:58.978Z,21.63
2022-11-19T14:14:57.498Z,25.90
2022-11-19T14:17:53.426Z,21.73
2022-11-19T14:20:55.139Z,22.80
2022-11-19T14:24:03.649Z,18.75
2022-11-19T14:26:56.246Z,28.10
2022-11-19T14:29:50.750Z,23.55
2022-11-19T14:32:33.550Z,34.08
2022-11-19T14:35:24.305Z,24.88
2022-11-19T14:38:00.750Z,26.02
2022-11-19T14:40:38.562Z,22.17
2022-11-19T14:43:46.049Z,18.92
2022-11-19T14:46:29.967Z,21.35
2022-11-19T14:49:10.260Z,23.55
2022-11-19T14:51:46.881Z,17.67
2022-11-19T14:54:31.501Z,22.42
2022-11-19T14:57:11.964Z,19.58
2022-11-19T14:59:50.954Z,23.80
2022-11-19T15:02:34.891Z,22.83
2022-11-19T15:05:11.899Z,17.60
2022-11-19T15:07:55.965Z,18.15
2022-11-19T15:10:36.228Z,17.23
2022-11-19T15:13:32.519Z,15.48
2022-11-19T15:16:16.778Z,15.13
2022-11-19T15:19:08.821Z,12.88
2022-11-19T15:22:00.772Z,11.70
2022-11-19T15:24:42.987Z,13.13
2022-11-19T15:27:22.437Z,16.05
2022-11-19T15:30:13.960Z,14.77
2022-11-19T15:32:58.076Z,23.45
2022-11-19T15:35:39.419Z,25.38
2022-11-19T15:38:20.139Z,20.67
2022-11-19T15:40:59.822Z,20.92
2022-11-19T15:43:35.503Z,28.27
2022-11-19T15:46:12.345Z,24.80
2022-11-19T15:48:56.474Z,26.05
2022-11-19T15:51:31.504Z,21.80
2022-11-19T15:54:07.089Z,19.02
2022-11-19T15:56:44.537Z,19.92
2022-11-19T15:59:21.719Z,28.45
2022-11-19T16:02:03.271Z,21.65
2022-11-19T16:04:42.046Z,28.30
2022-11-19T16:07:17.394Z,30.40
2022-11-19T16:09:54.577Z,28.92
2022-11-19T16:12:47.781Z,24.83
2022-11-19T16:15:43.329Z,15.13
2022-11-19T16:18:19.185Z,21.52
2022-11-19T16:20:56.750Z,14.43
2022-11-19T16:23:33.283Z,21.55
2022-11-19T16:26:08.370Z,15.45
2022-11-19T16:28:45.550Z,9.75
2022-11-19T16:31:20.699Z,12.25
2022-11-19T16:34:00.552Z,11.95
2022-11-19T16:36:35.716Z,10.10
2022-11-19T16:39:10.634Z,12.30
2022-11-19T16:42:01.243Z,9.88
2022-11-19T16:44:38.951Z,12.45
2022-11-19T16:47:19.290Z,7.93
2022-11-19T16:50:07.557Z,10.13
2022-11-19T16:52:43.451Z,11.73
2022-11-19T16:55:33.780Z,12.52
2022-11-19T16:58:10.224Z,11.38
2022-11-19T17:00:50.462Z,9.32
2022-11-19T17:03:36.917Z,9.45
2022-11-19T17:06:13.587Z,12.52
2022-11-19T17:08:59.752Z,13.05
2022-11-19T17:12:08.913Z,8.73
2022-11-19T17:14:52.448Z,11.00
2022-11-19T17:17:44.419Z,9.02
2022-11-19T17:20:48.563Z,9.02
2022-11-19T17:23:26.419Z,9.02
2022-11-19T17:26:02.008Z,11.38
2022-11-19T17:28:39.902Z,11.68
2022-11-19T17:31:20.210Z,12.50
2022-11-19T17:33:58.802Z,9.85
2022-11-19T17:36:33.885Z,12.48
2022-11-19T17:39:12.248Z,11.95
2022-11-19T17:42:04.213Z,11.07
2022-11-19T17:44:40.959Z,9.38
2022-11-19T17:47:24.576Z,8.15
2022-11-19T17:50:02.967Z,9.93
2022-11-19T17:52:37.974Z,10.98
2022-11-19T17:55:20.980Z,8.00
2022-11-19T17:57:55.968Z,11.52
2022-11-19T18:00:30.458Z,12.93
2022-11-19T18:03:05.561Z,12.23
2022-11-19T18:05:42.010Z,11.73
2022-11-19T18:08:16.968Z,11.23
2022-11-19T18:10:54.019Z,12.43
2022-11-19T18:13:32.334Z,9.27
2022-11-19T18:16:07.211Z,10.23
2022-11-19T18:18:42.023Z,8.25
2022-11-19T18:21:17.355Z,9.00
2022-11-19T18:23:52.655Z,7.70
2022-11-19T18:26:29.907Z,10.52
2022-11-19T18:29:04.883Z,9.45
2022-11-19T18:31:40.485Z,8.27
2022-11-19T18:34:19.016Z,6.80
2022-11-19T18:36:54.074Z,9.13
2022-11-19T18:39:29.994Z,7.63
2022-11-19T18:42:06.606Z,7.05
2022-11-19T18:44:40.334Z,8.35
2022-11-19T18:47:15.480Z,9.15
2022-11-19T18:49:49.906Z,8.80
2022-11-19T18:52:24.801Z,7.10
2022-11-19T18:55:00.261Z,6.97
2022-11-19T18:57:37.999Z,7.97
2022-11-19T19:00:13.946Z,7.78
2022-11-19T19:02:48.945Z,6.45
2022-11-19T19:05:23.717Z,8.45
2022-11-19T19:07:58.965Z,6.22
2022-11-19T19:10:34.236Z,7.13
2022-11-19T19:13:11.270Z,6.60
2022-11-19T19:15:45.635Z,6.15
2022-11-19T19:18:20.955Z,5.82
2022-11-19T19:20:55.927Z,7.35
2022-11-19T19:23:30.509Z,5.88
2022-11-19T19:26:05.561Z,6.75
2022-11-19T19:28:43.107Z,4.35
2022-11-19T19:31:18.368Z,7.28
2022-11-19T19:33:53.558Z,4.18
2022-11-19T19:36:29.759Z,6.30
2022-11-19T19:39:04.947Z,4.47
2022-11-19T19:41:40.027Z,4.55
2022-11-19T19:44:16.977Z,4.88
2022-11-19T19:46:52.993Z,4.05
2022-11-19T19:49:27.999Z,5.28
2022-11-19T19:52:02.476Z,4.82
2022-11-19T19:54:37.503Z,5.43
2022-11-19T19:57:12.927Z,7.22
2022-11-19T19:59:49.881Z,4.57
2022-11-19T20:02:27.521Z,3.58
2022-11-19T20:05:03.550Z,4.65
2022-11-19T20:07:39.635Z,3.75
2022-11-19T20:10:15.756Z,6.82
2022-11-19T20:13:07.065Z,3.95
2022-11-19T20:15:44.763Z,4.90
2022-11-19T20:18:20.342Z,4.88
2022-11-19T20:20:56.146Z,3.15
2022-11-19T20:23:31.443Z,4.68
2022-11-19T20:26:09.309Z,4.60
2022-11-19T20:28:45.649Z,3.75
2022-11-19T20:31:24.762Z,4.68
2022-11-19T20:34:02.538Z,4.28
2022-11-19T20:36:40.482Z,4.38
2022-11-19T20:39:16.648Z,3.22
2022-11-19T20:42:07.560Z,3.80
2022-11-19T20:44:43.755Z,3.85
2022-11-19T20:47:21.688Z,3.63
2022-11-19T20:49:58.086Z,4.85
2022-11-19T20:52:33.292Z,5.63
2022-11-19T20:55:09.878Z,3.13
2022-11-19T20:57:45.759Z,6.38
2022-11-19T21:00:22.884Z,3.67
2022-11-19T21:03:00.921Z,2.40
2022-11-19T21:05:36.351Z,3.30
2022-11-19T21:08:11.846Z,4.38
2022-11-19T21:10:47.715Z,3.30
2022-11-19T21:13:23.377Z,4.85
2022-11-19T21:16:00.060Z,4.03
2022-11-19T21:18:38.548Z,4.45
2022-11-19T21:21:14.184Z,4.18
2022-11-19T21:23:50.567Z,4.35
2022-11-19T21:26:27.404Z,4.05
2022-11-19T21:29:04.419Z,5.28
2022-11-19T21:31:44.455Z,3.60
2022-11-19T21:34:25.272Z,3.17
2022-11-19T21:37:01.137Z,4.10
2022-11-19T21:39:36.319Z,3.10
2022-11-19T21:42:12.383Z,5.57
2022-11-19T21:44:47.575Z,4.13
2022-11-19T21:47:23.261Z,3.72
2022-11-19T21:50:02.636Z,4.15
2022-11-19T21:52:37.929Z,5.57
2022-11-19T21:55:14.741Z,4.55
2022-11-19T21:57:50.489Z,4.20
2022-11-19T22:00:26.114Z,2.95
2022-11-19T22:03:02.132Z,4.13
2022-11-19T22:05:40.124Z,3.10
2022-11-19T22:08:16.849Z,4.07
2022-11-19T22:10:55.694Z,2.97
2022-11-19T22:13:31.704Z,2.90
2022-11-19T22:16:07.722Z,3.05
2022-11-19T22:18:44.130Z,3.28
2022-11-19T22:21:21.537Z,4.03
2022-11-19T22:23:56.830Z,4.13
2022-11-19T22:26:32.568Z,2.70
2022-11-19T22:29:09.029Z,3.17
2022-11-19T22:31:44.938Z,4.40
2022-11-19T22:34:20.528Z,3.53
2022-11-19T22:36:58.174Z,2.08
2022-11-19T22:39:34.680Z,3.58
2022-11-19T22:42:10.728Z,2.75
2022-11-19T22:44:46.566Z,3.80
2022-11-19T22:47:22.284Z,3.22
2022-11-19T22:49:58.483Z,2.70
2022-11-19T22:52:35.937Z,2.85
2022-11-19T22:55:12.456Z,5.25
2022-11-19T22:57:47.822Z,5.55
2022-11-19T23:00:43.882Z,1.75
2022-11-19T23:03:20.286Z,4.57
2022-11-19T23:05:57.699Z,1.63
2022-11-19T23:08:35.420Z,3.55
2022-11-19T23:11:12.167Z,3.65
2022-11-19T23:13:47.331Z,3.95
2022-11-19T23:16:24.554Z,2.53
2022-11-19T23:19:00.451Z,4.18
2022-11-19T23:21:36.115Z,3.25
2022-11-19T23:24:14.166Z,2.45
2022-11-19T23:26:49.364Z,3.90
2022-11-19T23:29:25.812Z,2.53
2022-11-19T23:32:01.136Z,3.65
2022-11-19T23:34:36.569Z,4.60
2022-11-19T23:37:11.891Z,2.15
2022-11-19T23:39:52.424Z,2.80
2022-11-19T23:42:28.402Z,1.95
2022-11-19T23:45:04.803Z,1.45
2022-11-19T23:47:42.892Z,2.13
2022-11-19T23:50:18.540Z,2.53
2022-11-19T23:52:57.559Z,3.10
2022-11-19T23:55:35.326Z,2.35
2022-11-19T23:58:11.309Z,3.33
